createdAt,value
2022-08-20T00:02:15.141Z,1.42
2022-08-20T00:04:43.054Z,1.23
2022-08-20T00:07:11.280Z,1.35
2022-08-20T00:09:39.107Z,1.55
2022-08-20T00:12:08.209Z,1.50
2022-08-20T00:14:36.959Z,1.65
2022-08-20T00:17:06.066Z,1.50
2022-08-20T00:19:34.592Z,1.60
2022-08-20T00:22:02.435Z,1.55
2022-08-20T00:24:30.286Z,1.60
2022-08-20T00:26:58.057Z,1.60
2022-08-20T00:29:25.850Z,1.73
2022-08-20T00:31:53.654Z,1.33
2022-08-20T00:34:21.589Z,1.50
2022-08-20T00:36:49.435Z,1.70
2022-08-20T00:39:17.249Z,1.85
2022-08-20T00:41:46.006Z,1.50
2022-08-20T00:44:22.617Z,1.83
2022-08-20T00:46:51.967Z,1.60
2022-08-20T00:49:31.876Z,1.55
2022-08-20T00:52:08.678Z,1.40
2022-08-20T00:54:53.374Z,1.70
2022-08-20T00:58:01.253Z,1.67
2022-08-20T01:00:37.880Z,1.50
2022-08-20T01:03:09.998Z,1.55
2022-08-20T01:05:48.520Z,1.73
2022-08-20T01:08:21.396Z,1.50
2022-08-20T01:10:53.822Z,1.40
2022-08-20T01:13:24.113Z,1.53
2022-08-20T01:15:56.147Z,1.52
2022-08-20T01:18:27.711Z,1.60
2022-08-20T01:21:00.598Z,1.58
2022-08-20T01:24:12.136Z,1.50
2022-08-20T01:26:45.859Z,1.48
2022-08-20T01:29:29.345Z,1.60
2022-08-20T01:32:01.517Z,1.80
2022-08-20T01:34:29.520Z,1.85
2022-08-20T01:36:58.642Z,1.60
2022-08-20T01:39:32.111Z,1.55
2022-08-20T01:42:22.948Z,1.60
2022-08-20T01:44:50.732Z,1.50
2022-08-20T01:47:25.166Z,1.60
2022-08-20T01:50:06.142Z,1.60
2022-08-20T01:53:09.959Z,1.42
2022-08-20T01:55:38.713Z,1.50
2022-08-20T01:58:06.576Z,1.73
2022-08-20T02:00:35.724Z,1.67
2022-08-20T02:03:03.885Z,1.63
2022-08-20T02:05:33.942Z,2.28
2022-08-20T02:08:02.419Z,1.90
2022-08-20T02:10:31.900Z,1.98
2022-08-20T02:13:01.590Z,1.95
2022-08-20T02:15:37.133Z,1.90
2022-08-20T02:18:14.858Z,1.88
2022-08-20T02:20:44.596Z,1.60
2022-08-20T02:23:13.479Z,1.90
2022-08-20T02:25:45.124Z,1.90
2022-08-20T02:28:16.635Z,1.90
2022-08-20T02:30:49.317Z,1.70
2022-08-20T02:33:24.306Z,2.15
2022-08-20T02:35:56.424Z,1.88
2022-08-20T02:38:25.389Z,2.10
2022-08-20T02:40:53.441Z,2.10
2022-08-20T02:43:21.615Z,2.08
2022-08-20T02:45:49.465Z,1.98
2022-08-20T02:48:21.740Z,2.25
2022-08-20T02:51:01.412Z,1.80
2022-08-20T02:53:35.550Z,2.05
2022-08-20T02:56:08.673Z,2.20
2022-08-20T02:58:37.868Z,2.28
2022-08-20T03:01:12.601Z,1.88
2022-08-20T03:03:42.356Z,2.17
2022-08-20T03:06:13.151Z,2.20
2022-08-20T03:08:41.308Z,2.65
2022-08-20T03:11:09.233Z,2.03
2022-08-20T03:13:37.649Z,2.53
2022-08-20T03:16:07.520Z,2.50
2022-08-20T03:18:40.530Z,2.33
2022-08-20T03:21:09.893Z,2.50
2022-08-20T03:23:40.335Z,2.38
2022-08-20T03:26:11.814Z,2.60
2022-08-20T03:28:41.456Z,2.67
2022-08-20T03:31:10.233Z,2.75
2022-08-20T03:36:27.859Z,2.47
2022-08-20T03:38:59.428Z,3.33
2022-08-20T03:41:29.118Z,2.58
2022-08-20T03:43:57.450Z,2.67
2022-08-20T03:46:26.240Z,2.72
2022-08-20T03:49:00.321Z,3.15
2022-08-20T03:51:30.709Z,2.70
2022-08-20T03:53:59.077Z,3.08
2022-08-20T03:56:27.503Z,3.10
2022-08-20T03:58:55.918Z,2.67
2022-08-20T04:01:45.438Z,2.97
2022-08-20T04:04:12.146Z,3.17
2022-08-20T04:06:42.414Z,2.80
2022-08-20T04:09:12.331Z,3.15
2022-08-20T04:11:42.361Z,2.70
2022-08-20T04:14:16.636Z,3.55
2022-08-20T04:16:47.119Z,3.10
2022-08-20T04:19:17.182Z,3.05
2022-08-20T04:21:48.669Z,3.42
2022-08-20T04:24:31.127Z,3.05
2022-08-20T04:29:35.349Z,2.90
2022-08-20T04:32:06.720Z,3.45
2022-08-20T04:34:35.414Z,3.40
2022-08-20T04:37:04.565Z,3.28
2022-08-20T04:39:33.352Z,3.40
2022-08-20T04:42:01.196Z,2.90
2022-08-20T04:44:28.977Z,3.42
2022-08-20T04:46:56.907Z,3.25
2022-08-20T04:49:26.441Z,3.17
2022-08-20T04:51:55.663Z,3.85
2022-08-20T04:54:23.381Z,3.30
2022-08-20T04:56:51.425Z,3.25
2022-08-20T04:59:19.566Z,3.60
2022-08-20T05:01:47.367Z,3.15
2022-08-20T05:04:15.118Z,3.90
2022-08-20T05:06:42.985Z,3.10
2022-08-20T05:09:10.803Z,3.42
2022-08-20T05:11:38.571Z,3.47
2022-08-20T05:14:09.535Z,3.63
2022-08-20T05:16:40.516Z,3.42
2022-08-20T05:19:13.440Z,3.15
2022-08-20T05:21:41.739Z,2.90
2022-08-20T05:24:10.538Z,3.20
2022-08-20T05:26:38.452Z,3.55
2022-08-20T05:29:07.579Z,3.40
2022-08-20T05:31:36.170Z,3.40
2022-08-20T05:34:12.052Z,3.50
2022-08-20T05:36:44.145Z,4.18
2022-08-20T05:39:13.466Z,3.70
2022-08-20T05:41:41.554Z,4.10
2022-08-20T05:44:13.340Z,3.25
2022-08-20T05:46:44.756Z,3.75
2022-08-20T05:49:17.025Z,3.33
2022-08-20T05:51:44.928Z,3.38
2022-08-20T05:54:14.197Z,4.20
2022-08-20T05:56:42.699Z,3.58
2022-08-20T05:59:12.637Z,3.45
2022-08-20T06:01:42.216Z,3.50
2022-08-20T06:04:31.874Z,4.10
2022-08-20T06:07:06.128Z,3.33
2022-08-20T06:09:35.133Z,3.85
2022-08-20T06:12:06.646Z,3.42
2022-08-20T06:14:35.440Z,4.50
2022-08-20T06:17:17.085Z,3.65
2022-08-20T06:19:47.205Z,3.30
2022-08-20T06:22:19.175Z,3.78
2022-08-20T06:24:52.753Z,3.60
2022-08-20T06:27:21.349Z,4.32
2022-08-20T06:29:50.973Z,3.97
2022-08-20T06:32:28.882Z,3.38
2022-08-20T06:35:03.687Z,4.00
2022-08-20T06:37:33.794Z,3.30
2022-08-20T06:40:24.913Z,3.28
2022-08-20T06:42:53.206Z,3.78
2022-08-20T06:45:25.407Z,3.85
2022-08-20T06:48:01.920Z,3.63
2022-08-20T06:50:44.461Z,3.88
2022-08-20T06:53:18.992Z,3.88
2022-08-20T06:55:52.967Z,4.30
2022-08-20T06:58:37.513Z,4.30
2022-08-20T07:01:12.392Z,3.83
2022-08-20T07:03:55.472Z,4.30
2022-08-20T07:06:25.951Z,3.65
2022-08-20T07:08:55.853Z,4.38
2022-08-20T07:11:28.043Z,3.90
2022-08-20T07:13:58.393Z,4.00
2022-08-20T07:16:27.262Z,3.92
2022-08-20T07:18:55.250Z,4.47
2022-08-20T07:21:23.236Z,4.65
2022-08-20T07:23:51.072Z,4.35
2022-08-20T07:26:19.403Z,4.32
2022-08-20T07:28:47.372Z,4.53
2022-08-20T07:31:34.900Z,4.70
2022-08-20T07:34:04.307Z,4.97
2022-08-20T07:36:33.427Z,5.82
2022-08-20T07:39:05.920Z,5.47
2022-08-20T07:41:34.364Z,5.70
2022-08-20T07:44:02.733Z,5.65
2022-08-20T07:46:31.897Z,5.60
2022-08-20T07:49:00.127Z,5.97
2022-08-20T07:51:28.600Z,5.93
2022-08-20T07:53:58.399Z,6.38
2022-08-20T07:56:26.620Z,5.82
2022-08-20T07:58:59.206Z,6.43
2022-08-20T08:01:30.990Z,5.72
2022-08-20T08:04:01.383Z,6.55
2022-08-20T08:06:31.571Z,5.45
2022-08-20T08:09:10.169Z,5.80
2022-08-20T08:11:46.363Z,4.80
2022-08-20T08:14:23.588Z,4.00
2022-08-20T08:16:57.374Z,4.65
2022-08-20T08:19:30.937Z,5.28
2022-08-20T08:21:58.823Z,5.32
2022-08-20T08:24:28.452Z,4.78
2022-08-20T08:26:56.584Z,4.13
2022-08-20T08:29:24.556Z,4.80
2022-08-20T08:31:52.316Z,4.63
2022-08-20T08:34:20.196Z,3.67
2022-08-20T08:36:48.021Z,4.10
2022-08-20T08:39:16.260Z,4.68
2022-08-20T08:41:51.636Z,3.47
2022-08-20T08:44:30.405Z,3.38
2022-08-20T08:47:18.735Z,3.20
2022-08-20T08:49:47.864Z,3.03
2022-08-20T08:52:33.503Z,2.55
2022-08-20T08:55:06.463Z,2.40
2022-08-20T08:57:34.398Z,2.10
2022-08-20T09:00:12.045Z,2.63
2022-08-20T09:02:42.600Z,2.80
2022-08-20T09:05:16.859Z,2.45
2022-08-20T09:07:51.621Z,3.03
2022-08-20T09:10:23.625Z,2.90
2022-08-20T09:12:52.490Z,3.28
2022-08-20T09:15:21.375Z,2.67
2022-08-20T09:17:49.436Z,3.28
2022-08-20T09:20:18.345Z,3.47
2022-08-20T09:22:46.177Z,2.47
2022-08-20T09:25:16.313Z,2.33
2022-08-20T09:27:44.111Z,3.35
2022-08-20T09:30:16.026Z,3.53
2022-08-20T09:32:46.341Z,2.65
2022-08-20T09:35:14.106Z,2.70
2022-08-20T09:37:42.031Z,2.70
2022-08-20T09:40:10.970Z,2.65
2022-08-20T09:42:41.643Z,3.17
2022-08-20T09:45:11.653Z,2.97
2022-08-20T09:47:54.829Z,2.35
2022-08-20T09:50:24.339Z,2.70
2022-08-20T09:52:54.322Z,2.70
2022-08-20T09:55:33.837Z,2.13
2022-08-20T09:58:41.406Z,2.17
2022-08-20T10:01:15.161Z,1.73
2022-08-20T10:03:45.341Z,1.40
2022-08-20T10:06:14.859Z,1.50
2022-08-20T10:08:43.910Z,2.15
2022-08-20T10:11:12.229Z,1.58
2022-08-20T10:13:40.115Z,1.30
2022-08-20T10:16:07.892Z,1.67
2022-08-20T10:18:36.875Z,1.35
2022-08-20T10:21:11.269Z,1.90
2022-08-20T10:23:39.175Z,1.75
2022-08-20T10:26:11.810Z,1.52
2022-08-20T10:28:39.761Z,1.00
2022-08-20T10:31:09.701Z,1.33
2022-08-20T10:33:39.669Z,1.42
2022-08-20T10:36:16.065Z,1.35
2022-08-20T10:38:44.926Z,1.40
2022-08-20T10:41:12.773Z,1.38
2022-08-20T10:43:40.619Z,2.10
2022-08-20T10:46:09.237Z,1.48
2022-08-20T10:48:37.498Z,1.60
2022-08-20T10:51:05.895Z,2.13
2022-08-20T10:53:34.088Z,1.85
2022-08-20T10:56:02.182Z,1.92
2022-08-20T10:58:39.540Z,1.90
2022-08-20T11:01:08.232Z,1.60
2022-08-20T11:03:36.319Z,1.80
2022-08-20T11:06:04.302Z,1.88
2022-08-20T11:08:34.191Z,1.50
2022-08-20T11:11:05.443Z,1.67
2022-08-20T11:13:34.892Z,1.60
2022-08-20T11:16:04.333Z,1.80
2022-08-20T11:18:33.122Z,1.92
2022-08-20T11:21:01.555Z,1.50
2022-08-20T11:23:29.393Z,1.77
2022-08-20T11:25:58.839Z,1.70
2022-08-20T11:28:31.693Z,1.92
2022-08-20T11:33:29.603Z,2.90
2022-08-20T11:35:57.560Z,2.13
2022-08-20T11:38:27.030Z,1.80
2022-08-20T11:40:54.823Z,1.45
2022-08-20T11:43:22.787Z,2.22
2022-08-20T11:45:55.326Z,2.25
2022-08-20T11:48:23.828Z,1.52
2022-08-20T11:50:51.764Z,1.48
2022-08-20T11:53:19.602Z,1.70
2022-08-20T11:55:48.043Z,1.65
2022-08-20T11:58:17.470Z,1.63
2022-08-20T12:00:45.858Z,1.45
2022-08-20T12:03:13.690Z,1.30
2022-08-20T12:05:45.190Z,1.77
2022-08-20T12:08:27.568Z,1.65
2022-08-20T12:11:02.300Z,1.60
2022-08-20T12:13:48.996Z,1.90
2022-08-20T12:16:20.310Z,1.80
2022-08-20T12:18:48.970Z,1.75
2022-08-20T12:21:17.636Z,1.90
2022-08-20T12:23:45.624Z,2.67
2022-08-20T12:26:13.608Z,1.67
2022-08-20T12:28:41.366Z,1.80
2022-08-20T12:31:09.208Z,1.80
2022-08-20T12:33:37.105Z,1.67
2022-08-20T12:36:05.270Z,1.65
2022-08-20T12:38:33.119Z,1.85
2022-08-20T12:41:01.323Z,2.05
2022-08-20T12:43:29.086Z,2.22
2022-08-20T12:45:56.925Z,1.80
2022-08-20T12:48:24.956Z,1.90
2022-08-20T12:50:52.926Z,2.00
2022-08-20T12:53:20.871Z,1.95
2022-08-20T12:55:48.664Z,2.60
2022-08-20T12:58:16.503Z,2.40
2022-08-20T13:00:50.677Z,2.00
2022-08-20T13:03:21.013Z,2.05
2022-08-20T13:05:49.956Z,2.20
2022-08-20T13:08:19.263Z,2.13
2022-08-20T13:10:47.710Z,1.90
2022-08-20T13:13:20.373Z,1.65
2022-08-20T13:15:50.945Z,1.95
2022-08-20T13:18:19.944Z,1.58
2022-08-20T13:20:48.450Z,1.80
2022-08-20T13:23:16.710Z,1.92
2022-08-20T13:25:44.543Z,1.58
2022-08-20T13:28:12.364Z,1.38
2022-08-20T13:30:41.567Z,1.60
2022-08-20T13:33:09.736Z,1.77
2022-08-20T13:35:37.834Z,1.50
2022-08-20T13:38:05.618Z,1.30
2022-08-20T13:40:33.565Z,1.40
2022-08-20T13:43:06.587Z,1.27
2022-08-20T13:45:38.969Z,1.48
2022-08-20T13:48:14.608Z,1.40
2022-08-20T13:50:46.753Z,2.10
2022-08-20T13:53:16.289Z,1.50
2022-08-20T13:55:45.209Z,1.33
2022-08-20T13:58:13.267Z,1.38
2022-08-20T14:00:41.111Z,1.20
2022-08-20T14:03:08.876Z,1.20
2022-08-20T14:05:38.184Z,1.17
2022-08-20T14:08:23.116Z,1.40
2022-08-20T14:10:51.915Z,1.00
2022-08-20T14:13:24.745Z,1.15
2022-08-20T14:15:53.307Z,1.17
2022-08-20T14:18:21.080Z,1.40
2022-08-20T14:20:49.420Z,1.25
2022-08-20T14:23:17.385Z,1.20
2022-08-20T14:25:47.850Z,1.10
2022-08-20T14:28:24.286Z,1.80
2022-08-20T14:30:53.719Z,1.25
2022-08-20T14:33:23.849Z,1.10
2022-08-20T14:35:52.288Z,1.20
2022-08-20T14:38:20.147Z,1.35
2022-08-20T14:40:50.205Z,1.20
2022-08-20T14:43:18.543Z,0.90
2022-08-20T14:45:46.353Z,1.20
2022-08-20T14:48:15.053Z,1.70
2022-08-20T14:50:43.367Z,1.50
2022-08-20T14:53:11.181Z,1.30
2022-08-20T14:55:39.255Z,1.75
2022-08-20T14:58:12.830Z,1.40
2022-08-20T15:00:42.285Z,1.23
2022-08-20T15:03:10.526Z,1.85
2022-08-20T15:05:39.208Z,1.40
2022-08-20T15:08:10.814Z,1.58
2022-08-20T15:10:39.885Z,1.60
2022-08-20T15:13:08.610Z,1.70
2022-08-20T15:15:36.916Z,1.75
2022-08-20T15:18:04.748Z,1.25
2022-08-20T15:20:34.992Z,1.70
2022-08-20T15:23:04.509Z,1.83
2022-08-20T15:25:36.453Z,1.67
2022-08-20T15:28:09.042Z,1.80
2022-08-20T15:30:41.052Z,1.80
2022-08-20T15:33:10.588Z,2.20
2022-08-20T15:35:38.612Z,2.05
2022-08-20T15:38:06.691Z,1.50
2022-08-20T15:40:34.665Z,1.60
2022-08-20T15:43:04.770Z,2.00
2022-08-20T15:45:34.273Z,1.50
2022-08-20T15:48:08.698Z,2.08
2022-08-20T15:51:00.551Z,2.35
2022-08-20T15:53:31.183Z,1.80
2022-08-20T15:56:29.928Z,2.00
2022-08-20T15:59:29.575Z,1.85
2022-08-20T16:02:26.038Z,2.00
2022-08-20T16:05:12.699Z,1.50
2022-08-20T16:07:46.767Z,1.80
2022-08-20T16:10:30.457Z,1.83
2022-08-20T16:13:02.316Z,1.90
2022-08-20T16:15:35.796Z,1.77
2022-08-20T16:18:16.543Z,1.88
2022-08-20T16:20:48.943Z,1.88
2022-08-20T16:23:20.253Z,1.55
2022-08-20T16:26:08.792Z,2.03
2022-08-20T16:29:11.531Z,1.88
2022-08-20T16:32:03.570Z,2.10
2022-08-20T16:34:51.733Z,1.80
2022-08-20T16:37:51.453Z,1.67
2022-08-20T16:40:32.816Z,1.80
2022-08-20T16:43:05.893Z,1.80
2022-08-20T16:48:07.288Z,1.75
2022-08-20T16:51:06.778Z,1.40
2022-08-20T16:53:35.655Z,1.77
2022-08-20T16:56:05.392Z,2.53
2022-08-20T16:58:33.190Z,1.63
2022-08-20T17:01:11.510Z,1.92
2022-08-20T17:03:49.846Z,1.85
2022-08-20T17:06:46.841Z,2.08
2022-08-20T17:09:43.532Z,2.20
2022-08-20T17:12:24.193Z,2.30
2022-08-20T17:14:58.489Z,2.10
2022-08-20T17:17:36.208Z,1.85
2022-08-20T17:20:20.050Z,2.30
2022-08-20T17:23:11.901Z,1.83
2022-08-20T17:25:39.767Z,1.60
2022-08-20T17:28:20.640Z,2.10
2022-08-20T17:30:49.110Z,1.77
2022-08-20T17:33:28.881Z,2.72
2022-08-20T17:36:17.548Z,2.28
2022-08-20T17:38:52.338Z,2.40
2022-08-20T17:41:32.575Z,1.90
2022-08-20T17:44:17.806Z,1.63
2022-08-20T17:46:48.950Z,1.77
2022-08-20T17:49:35.005Z,2.42
2022-08-20T17:52:11.723Z,1.90
2022-08-20T17:54:44.805Z,2.30
2022-08-20T18:00:01.671Z,1.90
2022-08-20T18:02:34.406Z,2.53
2022-08-20T18:05:05.548Z,2.42
2022-08-20T18:08:14.856Z,2.10
2022-08-20T18:11:28.227Z,2.00
2022-08-20T18:14:17.630Z,1.70
2022-08-20T18:17:09.792Z,1.88
2022-08-20T18:20:18.263Z,2.22
2022-08-20T18:23:06.205Z,2.28
2022-08-20T18:25:54.344Z,2.30
2022-08-20T18:28:38.649Z,2.40
2022-08-20T18:31:10.412Z,2.25
2022-08-20T18:33:42.571Z,2.10
2022-08-20T18:36:25.188Z,1.60
2022-08-20T18:39:30.133Z,2.05
2022-08-20T18:41:59.907Z,1.98
2022-08-20T18:44:48.006Z,2.55
2022-08-20T18:47:33.883Z,2.28
2022-08-20T18:50:16.373Z,1.83
2022-08-20T18:52:50.466Z,1.80
2022-08-20T18:55:39.857Z,2.80
2022-08-20T18:58:12.257Z,1.52
2022-08-20T19:00:49.646Z,1.80
2022-08-20T19:03:46.161Z,2.60
2022-08-20T19:06:28.825Z,2.30
2022-08-20T19:09:34.297Z,2.38
2022-08-20T19:12:57.334Z,1.90
2022-08-20T19:15:26.327Z,2.88
2022-08-20T19:18:09.954Z,2.42
2022-08-20T19:20:55.584Z,2.40
2022-08-20T19:23:27.828Z,2.13
2022-08-20T19:25:59.777Z,1.77
2022-08-20T19:28:40.764Z,1.70
2022-08-20T19:31:19.077Z,2.20
2022-08-20T19:33:51.592Z,1.80
2022-08-20T19:36:28.464Z,1.92
2022-08-20T19:39:03.713Z,2.13
2022-08-20T19:41:39.948Z,2.22
2022-08-20T19:44:07.896Z,1.73
2022-08-20T19:46:44.029Z,2.15
2022-08-20T19:49:27.379Z,1.70
2022-08-20T19:52:00.786Z,1.90
2022-08-20T19:54:29.675Z,1.90
2022-08-20T19:57:04.670Z,2.42
2022-08-20T19:59:32.545Z,1.60
2022-08-20T20:02:20.537Z,1.65
2022-08-20T20:04:55.085Z,2.65
2022-08-20T20:07:40.703Z,2.45
2022-08-20T20:10:22.055Z,2.17
2022-08-20T20:12:49.890Z,2.10
2022-08-20T20:15:18.809Z,1.90
2022-08-20T20:17:46.955Z,1.88
2022-08-20T20:20:34.965Z,2.55
2022-08-20T20:23:16.777Z,2.63
2022-08-20T20:25:49.315Z,2.00
2022-08-20T20:28:24.333Z,2.03
2022-08-20T20:30:52.229Z,2.40
2022-08-20T20:33:32.261Z,2.45
2022-08-20T20:36:44.972Z,2.42
2022-08-20T20:39:35.991Z,2.28
2022-08-20T20:42:10.200Z,1.90
2022-08-20T20:44:43.745Z,1.80
2022-08-20T20:47:36.027Z,1.95
2022-08-20T20:50:10.985Z,1.90
2022-08-20T20:52:54.635Z,2.15
2022-08-20T20:55:33.088Z,1.80
2022-08-20T20:58:02.678Z,2.22
2022-08-20T21:00:34.364Z,1.83
2022-08-20T21:03:04.044Z,1.70
2022-08-20T21:05:32.914Z,2.17
2022-08-20T21:08:03.998Z,2.50
2022-08-20T21:10:37.125Z,1.90
2022-08-20T21:13:08.103Z,2.20
2022-08-20T21:15:39.009Z,1.80
2022-08-20T21:18:09.209Z,2.30
2022-08-20T21:20:37.367Z,1.92
2022-08-20T21:23:05.292Z,2.15
2022-08-20T21:25:34.309Z,1.90
2022-08-20T21:28:02.521Z,2.13
2022-08-20T21:30:31.964Z,1.95
2022-08-20T21:33:00.056Z,2.20
2022-08-20T21:35:28.035Z,2.13
2022-08-20T21:37:55.802Z,2.08
2022-08-20T21:40:23.686Z,1.98
2022-08-20T21:42:56.701Z,2.35
2022-08-20T21:45:28.466Z,2.08
2022-08-20T21:47:57.296Z,2.05
2022-08-20T21:50:25.797Z,2.50
2022-08-20T21:52:55.264Z,2.13
2022-08-20T21:55:33.053Z,2.20
2022-08-20T21:58:04.770Z,2.55
2022-08-20T22:00:53.519Z,2.22
2022-08-20T22:03:26.956Z,3.03
2022-08-20T22:05:55.962Z,2.58
2022-08-20T22:08:26.082Z,2.55
2022-08-20T22:10:58.298Z,1.90
2022-08-20T22:13:31.801Z,2.50
2022-08-20T22:16:02.515Z,3.13
2022-08-20T22:18:30.655Z,2.22
2022-08-20T22:20:59.109Z,2.15
2022-08-20T22:23:27.544Z,2.50
2022-08-20T22:25:55.297Z,2.35
2022-08-20T22:28:23.515Z,2.58
2022-08-20T22:30:51.352Z,2.78
2022-08-20T22:33:23.409Z,2.38
2022-08-20T22:35:56.712Z,2.40
2022-08-20T22:38:25.805Z,2.10
2022-08-20T22:40:54.166Z,2.35
2022-08-20T22:43:23.229Z,2.53
2022-08-20T22:45:58.276Z,2.17
2022-08-20T22:48:26.488Z,2.92
2022-08-20T22:50:54.886Z,2.25
2022-08-20T22:53:26.187Z,3.00
2022-08-20T22:55:54.786Z,2.30
2022-08-20T22:58:30.901Z,2.88
2022-08-20T23:01:01.201Z,2.50
2022-08-20T23:03:39.452Z,2.40
2022-08-20T23:06:09.524Z,2.33
2022-08-20T23:08:38.173Z,2.92
2022-08-20T23:11:06.577Z,2.47
2022-08-20T23:13:34.932Z,2.35
2022-08-20T23:16:03.405Z,2.72
2022-08-20T23:18:31.652Z,2.03
2022-08-20T23:21:00.654Z,2.20
2022-08-20T23:23:28.563Z,2.67
2022-08-20T23:25:56.569Z,2.70
2022-08-20T23:28:26.064Z,2.65
2022-08-20T23:30:53.988Z,2.13
2022-08-20T23:33:22.023Z,2.47
2022-08-20T23:35:50.257Z,2.30
2022-08-20T23:38:20.434Z,2.20
2022-08-20T23:40:48.327Z,2.20
2022-08-20T23:43:18.989Z,2.70
2022-08-20T23:45:47.163Z,2.38
2022-08-20T23:48:14.996Z,2.28
2022-08-20T23:50:42.861Z,2.80
2022-08-20T23:53:10.776Z,2.55
2022-08-20T23:55:38.597Z,2.63
2022-08-20T23:58:06.370Z,2.22
